createdAt,value
2019-04-04T00:00:18.286Z,7.4
2019-04-04T00:01:19.667Z,7.5
2019-04-04T00:02:21.204Z,7.5
2019-04-04T00:03:23.166Z,7.6
2019-04-04T00:04:24.583Z,7.6
2019-04-04T00:05:27.687Z,7.7
2019-04-04T00:06:29.288Z,7.7
2019-04-04T00:07:31.103Z,7.7
2019-04-04T00:08:33.308Z,7.7
2019-04-04T00:09:35.269Z,7.7
2019-04-04T00:10:36.808Z,7.7
2019-04-04T00:11:38.889Z,7.6
2019-04-04T00:12:41.160Z,7.5
2019-04-04T00:13:43.675Z,7.5
2019-04-04T00:14:45.570Z,7.4
2019-04-04T00:15:47.554Z,7.4
2019-04-04T00:16:50.612Z,7.3
2019-04-04T00:17:55.581Z,7.3
2019-04-04T00:19:00.407Z,7.3
2019-04-04T00:20:02.914Z,7.2
2019-04-04T00:21:04.738Z,7.2
2019-04-04T00:22:06.916Z,7.2
2019-04-04T00:23:09.000Z,7.2
2019-04-04T00:24:11.184Z,7.3
2019-04-04T00:25:12.720Z,7.3
2019-04-04T00:26:14.250Z,7.3
2019-04-04T00:27:15.463Z,7.3
2019-04-04T00:28:16.564Z,7.3
2019-04-04T00:29:19.248Z,7.4
2019-04-04T00:30:20.832Z,7.4
2019-04-04T00:31:22.130Z,7.3
2019-04-04T00:32:23.686Z,7.3
2019-04-04T00:33:27.400Z,7.3
2019-04-04T00:34:30.040Z,7.3
2019-04-04T00:35:32.956Z,7.3
2019-04-04T00:36:36.196Z,7.3
2019-04-04T00:37:40.838Z,7.2
2019-04-04T00:38:42.590Z,7.2
2019-04-04T00:39:43.980Z,7.2
2019-04-04T00:40:45.528Z,7.2
2019-04-04T00:41:47.075Z,7.2
2019-04-04T00:42:49.639Z,7.2
2019-04-04T00:43:53.589Z,7.2
2019-04-04T00:44:57.370Z,7.2
2019-04-04T00:46:02.358Z,7.2
2019-04-04T00:47:03.905Z,7.2
2019-04-04T00:48:05.139Z,7.2
2019-04-04T00:49:06.992Z,7.2
2019-04-04T00:50:08.282Z,7.2
2019-04-04T00:51:09.966Z,7.2
2019-04-04T00:52:12.183Z,7.3
2019-04-04T00:53:13.727Z,7.3
2019-04-04T00:54:16.047Z,7.3
2019-04-04T00:55:17.759Z,7.4
2019-04-04T00:56:19.847Z,7.4
2019-04-04T00:57:21.207Z,7.4
2019-04-04T00:58:22.780Z,7.5
2019-04-04T00:59:25.030Z,7.5
2019-04-04T01:00:26.572Z,7.5
2019-04-04T01:01:28.574Z,7.6
2019-04-04T01:02:30.122Z,7.6
2019-04-04T01:03:32.098Z,7.7
2019-04-04T01:04:33.502Z,7.6
2019-04-04T01:05:35.035Z,7.6
2019-04-04T01:06:36.261Z,7.5
2019-04-04T01:07:37.618Z,7.5
2019-04-04T01:08:40.411Z,7.4
2019-04-04T01:09:41.958Z,7.2
2019-04-04T01:10:43.348Z,7.1
2019-04-04T01:11:44.940Z,7.1
2019-04-04T01:12:46.505Z,7.1
2019-04-04T01:13:47.575Z,7.1
2019-04-04T01:14:49.122Z,7.1
2019-04-04T01:15:50.546Z,7.1
2019-04-04T01:16:52.150Z,7.1
2019-04-04T01:17:53.687Z,7.2
2019-04-04T01:18:55.068Z,7.1
2019-04-04T01:19:56.808Z,7.1
2019-04-04T01:20:58.267Z,7.1
2019-04-04T01:21:59.658Z,7.1
2019-04-04T01:23:01.208Z,7.1
2019-04-04T01:24:02.300Z,7.1
2019-04-04T01:25:03.749Z,7.1
2019-04-04T01:26:05.633Z,7.1
2019-04-04T01:27:08.354Z,7.1
2019-04-04T01:28:09.907Z,7.1
2019-04-04T01:29:12.380Z,7.1
2019-04-04T01:30:14.220Z,7.2
2019-04-04T01:31:16.958Z,7.1
2019-04-04T01:32:18.928Z,7.2
2019-04-04T01:33:22.028Z,7.2
2019-04-04T01:34:23.571Z,7.2
2019-04-04T01:35:24.981Z,7.2
2019-04-04T01:36:27.245Z,7.1
2019-04-04T01:37:29.374Z,7.2
2019-04-04T01:38:31.356Z,7.1
2019-04-04T01:39:33.540Z,7.2
2019-04-04T01:40:35.374Z,7.2
2019-04-04T01:41:38.331Z,7.1
2019-04-04T01:42:40.454Z,7.1
2019-04-04T01:43:42.257Z,7.2
2019-04-04T01:44:44.290Z,7.2
2019-04-04T01:45:46.447Z,7.2
2019-04-04T01:46:47.927Z,7.2
2019-04-04T01:47:50.030Z,7.2
2019-04-04T01:48:52.101Z,7.1
2019-04-04T01:49:53.740Z,7.2
2019-04-04T01:50:55.764Z,7.1
2019-04-04T01:51:59.179Z,7.2
2019-04-04T01:53:01.450Z,7.1
2019-04-04T01:54:03.102Z,7.1
2019-04-04T01:55:05.587Z,7.1
2019-04-04T01:56:08.381Z,7.1
2019-04-04T01:57:09.998Z,7.1
2019-04-04T01:58:12.215Z,7.1
2019-04-04T01:59:14.370Z,7.1
2019-04-04T02:00:17.024Z,7.1
2019-04-04T02:01:18.628Z,7.1
2019-04-04T02:02:20.198Z,7.1
2019-04-04T02:03:24.420Z,7.1
2019-04-04T02:04:26.779Z,7.1
2019-04-04T02:05:28.906Z,7.1
2019-04-04T02:06:30.539Z,7.1
2019-04-04T02:07:31.924Z,7.1
2019-04-04T02:08:33.588Z,7.1
2019-04-04T02:09:36.089Z,7.1
2019-04-04T02:10:37.312Z,7.1
2019-04-04T02:11:39.470Z,7.1
2019-04-04T02:12:41.016Z,7.1
2019-04-04T02:13:42.749Z,7.1
2019-04-04T02:14:45.087Z,7.1
2019-04-04T02:15:46.831Z,7.1
2019-04-04T02:16:52.881Z,7.1
2019-04-04T02:17:54.933Z,7.1
2019-04-04T02:18:56.466Z,7.1
2019-04-04T02:19:58.012Z,7.1
2019-04-04T02:20:59.606Z,7.2
2019-04-04T02:22:01.809Z,7.2
2019-04-04T02:23:03.448Z,7.1
2019-04-04T02:24:04.824Z,7.2
2019-04-04T02:25:06.212Z,7.2
2019-04-04T02:26:07.782Z,7.2
2019-04-04T02:27:09.354Z,7.2
2019-04-04T02:28:10.930Z,7.2
2019-04-04T02:29:13.219Z,7.2
2019-04-04T02:30:17.880Z,7.2
2019-04-04T02:31:23.070Z,7.3
2019-04-04T02:32:28.881Z,7.3
2019-04-04T02:33:34.327Z,7.4
2019-04-04T02:34:39.591Z,7.4
2019-04-04T02:35:45.200Z,7.5
2019-04-04T02:36:51.124Z,7.6
2019-04-04T02:37:57.398Z,7.7
2019-04-04T02:39:01.809Z,7.8
2019-04-04T02:40:05.946Z,7.9
2019-04-04T02:41:09.898Z,7.9
2019-04-04T02:42:11.291Z,7.9
2019-04-04T02:43:12.857Z,7.7
2019-04-04T02:44:14.253Z,7.8
2019-04-04T02:45:15.680Z,7.9
2019-04-04T02:46:17.223Z,7.2
2019-04-04T02:47:19.835Z,7.3
2019-04-04T02:48:26.018Z,7.5
2019-04-04T02:49:30.954Z,7.7
2019-04-04T02:50:36.942Z,7.8
2019-04-04T02:51:42.652Z,7.9
2019-04-04T02:52:48.213Z,7.9
2019-04-04T02:53:54.218Z,7.7
2019-04-04T02:54:59.828Z,7.9
2019-04-04T02:56:04.982Z,7.9
2019-04-04T02:57:10.855Z,7.9
2019-04-04T02:58:16.661Z,7.9
2019-04-04T02:59:23.194Z,7.9
2019-04-04T03:00:28.947Z,7.9
2019-04-04T03:01:34.556Z,7.9
2019-04-04T03:02:38.472Z,7.9
2019-04-04T03:03:43.916Z,7.9
2019-04-04T03:04:48.394Z,7.9
2019-04-04T03:05:53.488Z,7.9
2019-04-04T03:07:00.004Z,7.9
2019-04-04T03:08:05.892Z,7.9
2019-04-04T03:09:11.792Z,7.9
2019-04-04T03:10:18.051Z,7.9
2019-04-04T03:11:23.953Z,7.9
2019-04-04T03:12:28.328Z,7.9
2019-04-04T03:13:33.657Z,7.9
2019-04-04T03:14:38.966Z,7.9
2019-04-04T03:15:49.223Z,7.2
2019-04-04T03:16:50.791Z,7.4
2019-04-04T03:17:52.358Z,7.5
2019-04-04T03:18:53.898Z,7.7
2019-04-04T03:19:55.355Z,7.8
2019-04-04T03:20:57.025Z,7.9
2019-04-04T03:21:58.586Z,7.9
2019-04-04T03:23:02.784Z,7.9
2019-04-04T03:24:08.695Z,7.9
2019-04-04T03:25:16.038Z,7.9
2019-04-04T03:26:21.719Z,7.9
2019-04-04T03:27:28.505Z,7.9
2019-04-04T03:28:33.773Z,7.9
2019-04-04T03:29:39.412Z,7.9
2019-04-04T03:30:40.978Z,7.9
2019-04-04T03:31:42.302Z,7.9
2019-04-04T03:32:55.445Z,7.9
2019-04-04T03:33:57.346Z,7.9
2019-04-04T03:34:58.960Z,7.9
2019-04-04T03:36:02.876Z,7.9
2019-04-04T03:37:13.376Z,7.9
2019-04-04T03:38:15.301Z,7.9
2019-04-04T03:39:21.847Z,7.9
2019-04-04T03:40:27.137Z,7.9
2019-04-04T03:41:37.288Z,7.9
2019-04-04T03:42:38.757Z,7.9
2019-04-04T03:43:43.101Z,7.9
2019-04-04T03:44:44.534Z,7.9
2019-04-04T03:45:46.142Z,7.9
2019-04-04T03:46:47.557Z,7.9
2019-04-04T03:47:49.207Z,7.9
2019-04-04T03:48:52.552Z,7.1
2019-04-04T03:49:59.060Z,7.3
2019-04-04T03:51:06.310Z,7.4
2019-04-04T03:52:12.827Z,7.6
2019-04-04T03:53:18.773Z,7.7
2019-04-04T03:54:24.657Z,7.8
2019-04-04T03:55:29.996Z,7.9
2019-04-04T03:56:40.553Z,7.9
2019-04-04T03:57:41.997Z,7.9
2019-04-04T03:58:43.549Z,7.8
2019-04-04T03:59:45.009Z,7.8
2019-04-04T04:00:46.585Z,7.7
2019-04-04T04:01:48.495Z,7.6
2019-04-04T04:02:52.322Z,7.4
2019-04-04T04:03:56.913Z,7.3
2019-04-04T04:05:03.203Z,7.1
2019-04-04T04:06:11.035Z,7.1
2019-04-04T04:07:16.668Z,7.1
2019-04-04T04:08:23.477Z,7.1
2019-04-04T04:09:28.433Z,7.1
2019-04-04T04:10:35.319Z,7.1
2019-04-04T04:11:39.688Z,7.1
2019-04-04T04:12:45.180Z,7.1
2019-04-04T04:13:51.380Z,7.1
2019-04-04T04:14:56.585Z,7.1
2019-04-04T04:16:04.355Z,7.1
2019-04-04T04:17:05.915Z,7.1
2019-04-04T04:18:07.321Z,7.1
2019-04-04T04:19:08.744Z,7.1
2019-04-04T04:20:10.326Z,7.1
2019-04-04T04:21:12.819Z,7.2
2019-04-04T04:22:20.555Z,7.2
2019-04-04T04:23:25.609Z,7.2
2019-04-04T04:24:31.554Z,7.2
2019-04-04T04:25:38.081Z,7.2
2019-04-04T04:26:43.441Z,7.2
2019-04-04T04:27:49.889Z,7.2
2019-04-04T04:28:54.990Z,7.2
2019-04-04T04:29:56.558Z,7.3
2019-04-04T04:30:58.163Z,7.3
2019-04-04T04:31:59.743Z,7.3
2019-04-04T04:33:01.109Z,7.3
2019-04-04T04:34:03.399Z,7.3
2019-04-04T04:35:10.386Z,7.4
2019-04-04T04:36:17.529Z,7.4
2019-04-04T04:37:22.187Z,7.4
2019-04-04T04:38:28.325Z,7.4
2019-04-04T04:39:29.720Z,7.5
2019-04-04T04:40:31.000Z,7.6
2019-04-04T04:41:32.433Z,7.7
2019-04-04T04:42:34.000Z,7.8
2019-04-04T04:43:35.560Z,7.9
2019-04-04T04:44:40.376Z,7.9
2019-04-04T04:45:46.357Z,7.7
2019-04-04T04:46:52.369Z,7.9
2019-04-04T04:47:58.609Z,7.6
2019-04-04T04:49:05.642Z,7.8
2019-04-04T04:50:11.258Z,7.9
2019-04-04T04:51:14.088Z,7.7
2019-04-04T04:52:16.697Z,7.9
2019-04-04T04:53:20.911Z,7.9
2019-04-04T04:54:24.700Z,7.9
2019-04-04T04:55:29.480Z,7.9
2019-04-04T04:56:33.115Z,7.9
2019-04-04T04:57:39.588Z,7.9
2019-04-04T04:58:43.936Z,7.9
2019-04-04T04:59:46.297Z,7.9
2019-04-04T05:00:49.292Z,7.9
2019-04-04T05:01:52.648Z,7.2
2019-04-04T05:02:55.024Z,7.3
2019-04-04T05:03:58.250Z,7.5
2019-04-04T05:05:01.479Z,7.7
2019-04-04T05:06:04.792Z,7.8
2019-04-04T05:07:09.320Z,7.9
2019-04-04T05:08:11.995Z,7.9
2019-04-04T05:09:15.580Z,7.8
2019-04-04T05:10:17.170Z,7.9
2019-04-04T05:11:21.095Z,7.9
2019-04-04T05:12:23.717Z,7.9
2019-04-04T05:13:30.028Z,7.9
2019-04-04T05:14:31.909Z,7.9
2019-04-04T05:15:34.408Z,7.9
2019-04-04T05:16:39.897Z,7.9
2019-04-04T05:17:44.000Z,7.2
2019-04-04T05:18:49.207Z,7.3
2019-04-04T05:19:52.014Z,7.4
2019-04-04T05:20:53.421Z,7.4
2019-04-04T05:21:54.988Z,7.4
2019-04-04T05:22:56.420Z,7.4
2019-04-04T05:23:57.825Z,7.4
2019-04-04T05:25:10.177Z,7.4
2019-04-04T05:26:11.768Z,7.4
2019-04-04T05:27:13.180Z,7.4
2019-04-04T05:28:14.481Z,7.5
2019-04-04T05:29:16.057Z,7.5
2019-04-04T05:30:21.700Z,7.5
2019-04-04T05:31:23.120Z,7.6
2019-04-04T05:32:24.513Z,7.6
2019-04-04T05:33:32.603Z,7.6
2019-04-04T05:34:34.003Z,7.6
2019-04-04T05:35:38.672Z,7.7
2019-04-04T05:36:40.296Z,7.7
2019-04-04T05:37:41.699Z,7.8
2019-04-04T05:38:48.454Z,7.8
2019-04-04T05:39:56.325Z,7.9
2019-04-04T05:40:57.792Z,7.8
2019-04-04T05:42:02.208Z,7.8
2019-04-04T05:43:06.014Z,7.7
2019-04-04T05:44:11.540Z,7.6
2019-04-04T05:45:16.334Z,7.4
2019-04-04T05:46:20.912Z,7.2
2019-04-04T05:47:25.079Z,7.1
2019-04-04T05:48:30.667Z,7.1
2019-04-04T05:49:32.233Z,7.1
2019-04-04T05:50:33.776Z,7.1
2019-04-04T05:51:37.621Z,7.1
2019-04-04T05:52:39.300Z,7.1
2019-04-04T05:53:40.884Z,7.1
2019-04-04T05:54:42.291Z,7.1
2019-04-04T05:55:44.008Z,7.1
2019-04-04T05:56:50.651Z,7.1
2019-04-04T05:57:53.050Z,7.1
2019-04-04T05:58:55.099Z,7.1
2019-04-04T05:59:57.698Z,7.1
2019-04-04T06:01:03.686Z,7.1
2019-04-04T06:02:05.151Z,7.1
2019-04-04T06:03:06.764Z,7.1
2019-04-04T06:04:08.352Z,7.2
2019-04-04T06:05:09.970Z,7.2
2019-04-04T06:06:12.207Z,7.2
2019-04-04T06:07:16.932Z,7.2
2019-04-04T06:08:18.527Z,7.2
2019-04-04T06:09:20.088Z,7.2
2019-04-04T06:10:21.618Z,7.1
2019-04-04T06:11:23.255Z,7.2
2019-04-04T06:12:27.107Z,7.2
2019-04-04T06:13:29.029Z,7.2
2019-04-04T06:14:32.080Z,7.2
2019-04-04T06:15:34.394Z,7.2
2019-04-04T06:16:36.767Z,7.2
2019-04-04T06:17:40.962Z,7.2
2019-04-04T06:18:44.714Z,7.3
2019-04-04T06:19:46.389Z,7.3
2019-04-04T06:20:50.114Z,7.4
2019-04-04T06:21:51.687Z,7.5
2019-04-04T06:22:53.794Z,7.6
2019-04-04T06:23:57.607Z,7.7
2019-04-04T06:25:01.210Z,7.8
2019-04-04T06:26:07.710Z,7.9
2019-04-04T06:27:11.011Z,7.8
2019-04-04T06:28:13.859Z,7.2
2019-04-04T06:29:19.060Z,7.4
2019-04-04T06:30:21.885Z,7.5
2019-04-04T06:31:31.346Z,7.7
2019-04-04T06:32:33.191Z,7.8
2019-04-04T06:33:37.095Z,7.9
2019-04-04T06:34:38.655Z,7.7
2019-04-04T06:35:41.328Z,7.8
2019-04-04T06:36:42.727Z,7.9
2019-04-04T06:37:52.015Z,7.9
2019-04-04T06:38:55.775Z,7.9
2019-04-04T06:40:00.769Z,7.9
2019-04-04T06:41:03.069Z,7.9
2019-04-04T06:42:05.268Z,7.9
2019-04-04T06:43:13.097Z,7.7
2019-04-04T06:44:15.241Z,7.8
2019-04-04T06:45:17.510Z,7.9
2019-04-04T06:46:24.021Z,7.9
2019-04-04T06:47:27.715Z,7.9
2019-04-04T06:48:35.078Z,7.9
2019-04-04T06:49:37.645Z,7.8
2019-04-04T06:50:44.187Z,7.9
2019-04-04T06:51:48.664Z,7.9
2019-04-04T06:52:52.445Z,7.9
2019-04-04T06:53:55.894Z,7.9
2019-04-04T06:54:59.452Z,7.9
2019-04-04T06:56:02.379Z,7.9
2019-04-04T06:57:06.174Z,7.9
2019-04-04T06:58:10.807Z,7.9
2019-04-04T06:59:13.796Z,7.9
2019-04-04T07:00:17.957Z,7.9
2019-04-04T07:01:26.344Z,7.9
2019-04-04T07:02:27.798Z,7.9
2019-04-04T07:03:29.634Z,7.9
2019-04-04T07:04:37.352Z,7.9
2019-04-04T07:05:40.200Z,7.9
2019-04-04T07:06:43.866Z,7.9
2019-04-04T07:07:45.424Z,7.9
2019-04-04T07:08:48.468Z,7.9
2019-04-04T07:09:52.359Z,7.9
2019-04-04T07:11:22.321Z,7.8
2019-04-04T07:12:29.798Z,7.8
2019-04-04T07:13:44.249Z,7.8
2019-04-04T07:14:50.685Z,7.7
2019-04-04T07:16:09.258Z,7.6
2019-04-04T07:17:11.134Z,7.6
2019-04-04T07:18:14.167Z,7.5
2019-04-04T07:19:16.618Z,7.5
2019-04-04T07:20:18.867Z,7.4
2019-04-04T07:21:22.054Z,7.4
2019-04-04T07:22:26.743Z,7.3
2019-04-04T07:23:29.847Z,7.3
2019-04-04T07:24:33.137Z,7.3
2019-04-04T07:25:41.107Z,7.3
2019-04-04T07:26:47.038Z,7.3
2019-04-04T07:27:49.325Z,7.3
2019-04-04T07:28:55.315Z,7.2
2019-04-04T07:29:58.677Z,7.2
2019-04-04T07:31:03.957Z,7.2
2019-04-04T07:32:07.116Z,7.2
2019-04-04T07:33:14.119Z,7.2
2019-04-04T07:34:15.784Z,7.2
2019-04-04T07:35:22.151Z,7.2
2019-04-04T07:36:23.566Z,7.2
2019-04-04T07:37:25.116Z,7.2
2019-04-04T07:38:30.375Z,7.2
2019-04-04T07:39:34.173Z,7.2
2019-04-04T07:40:38.658Z,7.3
2019-04-04T07:41:46.227Z,7.3
2019-04-04T07:42:49.540Z,7.4
2019-04-04T07:43:53.479Z,7.4
2019-04-04T07:44:56.492Z,7.5
2019-04-04T07:46:17.947Z,7.5
2019-04-04T07:47:19.524Z,7.6
2019-04-04T07:48:20.910Z,7.6
2019-04-04T07:49:25.208Z,7.6
2019-04-04T07:50:28.257Z,7.7
2019-04-04T07:51:32.119Z,7.7
2019-04-04T07:52:34.890Z,7.8
2019-04-04T07:53:38.424Z,7.8
2019-04-04T07:54:40.504Z,7.8
2019-04-04T07:55:43.779Z,7.8
2019-04-04T07:56:50.106Z,7.8
2019-04-04T07:57:53.042Z,7.8
2019-04-04T07:58:54.601Z,7.8
2019-04-04T07:59:56.212Z,7.7
2019-04-04T08:00:57.303Z,7.7
2019-04-04T08:01:58.889Z,7.7
2019-04-04T08:03:00.129Z,7.8
2019-04-04T08:04:01.529Z,7.8
2019-04-04T08:05:03.094Z,7.8
2019-04-04T08:06:04.645Z,7.8
2019-04-04T08:07:06.250Z,7.8
2019-04-04T08:08:07.623Z,7.8
2019-04-04T08:09:08.868Z,7.8
2019-04-04T08:10:22.361Z,7.7
2019-04-04T08:11:23.907Z,7.6
2019-04-04T08:12:25.455Z,7.4
2019-04-04T08:13:27.017Z,7.3
2019-04-04T08:14:28.586Z,7.2
2019-04-04T08:15:30.129Z,7.1
2019-04-04T08:16:31.363Z,7.1
2019-04-04T08:17:32.816Z,7.1
2019-04-04T08:18:34.215Z,7.1
2019-04-04T08:19:35.759Z,7.1
2019-04-04T08:20:36.979Z,7.1
2019-04-04T08:21:38.260Z,7.1
2019-04-04T08:22:41.163Z,7.1
2019-04-04T08:23:42.595Z,7.1
2019-04-04T08:24:43.966Z,7.1
2019-04-04T08:25:45.411Z,7.1
2019-04-04T08:26:46.988Z,7.1
2019-04-04T08:27:48.230Z,7.1
2019-04-04T08:28:49.816Z,7.1
2019-04-04T08:29:51.391Z,7.1
2019-04-04T08:30:52.969Z,7.1
2019-04-04T08:31:54.238Z,7.1
2019-04-04T08:32:55.811Z,7.1
2019-04-04T08:33:57.395Z,7.1
2019-04-04T08:34:58.959Z,7.2
2019-04-04T08:36:07.981Z,7.2
2019-04-04T08:37:09.365Z,7.2
2019-04-04T08:38:10.678Z,7.2
2019-04-04T08:39:12.214Z,7.2
2019-04-04T08:40:13.460Z,7.2
2019-04-04T08:41:15.106Z,7.2
2019-04-04T08:42:16.500Z,7.2
2019-04-04T08:43:17.888Z,7.2
2019-04-04T08:44:19.158Z,7.3
2019-04-04T08:45:20.708Z,7.3
2019-04-04T08:46:21.939Z,7.2
2019-04-04T08:47:23.326Z,7.2
2019-04-04T08:48:24.844Z,7.2
2019-04-04T08:49:26.417Z,7.3
2019-04-04T08:50:27.819Z,7.3
2019-04-04T08:51:29.376Z,7.3
2019-04-04T08:52:30.776Z,7.3
2019-04-04T08:53:41.676Z,7.3
2019-04-04T08:54:43.300Z,7.2
2019-04-04T08:55:44.863Z,7.2
2019-04-04T08:56:46.317Z,7.2
2019-04-04T08:57:47.865Z,7.2
2019-04-04T08:58:52.539Z,7.2
2019-04-04T08:59:54.107Z,7.2
2019-04-04T09:00:55.574Z,7.2
2019-04-04T09:01:57.126Z,7.2
2019-04-04T09:02:58.708Z,7.2
2019-04-04T09:04:00.811Z,7.2
2019-04-04T09:05:13.876Z,7.2
2019-04-04T09:06:15.471Z,7.2
2019-04-04T09:07:17.023Z,7.2
2019-04-04T09:08:18.567Z,7.2
2019-04-04T09:09:19.953Z,7.2
2019-04-04T09:10:21.505Z,7.2
2019-04-04T09:11:23.046Z,7.2
2019-04-04T09:12:24.587Z,7.2
2019-04-04T09:13:26.139Z,7.2
2019-04-04T09:14:27.367Z,7.2
2019-04-04T09:15:28.790Z,7.2
2019-04-04T09:16:30.395Z,7.2
2019-04-04T09:17:31.939Z,7.2
2019-04-04T09:18:33.406Z,7.2
2019-04-04T09:19:34.526Z,7.2
2019-04-04T09:20:35.758Z,7.2
2019-04-04T09:21:37.158Z,7.2
2019-04-04T09:22:41.588Z,7.2
2019-04-04T09:23:43.005Z,7.2
2019-04-04T09:24:44.541Z,7.3
2019-04-04T09:25:46.123Z,7.3
2019-04-04T09:26:47.510Z,7.3
2019-04-04T09:27:49.072Z,7.3
2019-04-04T09:28:50.291Z,7.3
2019-04-04T09:29:51.852Z,7.3
2019-04-04T09:30:53.127Z,7.3
2019-04-04T09:31:54.663Z,7.3
2019-04-04T09:32:56.242Z,7.3
2019-04-04T09:33:57.819Z,7.3
2019-04-04T09:34:59.372Z,7.3
2019-04-04T09:36:00.778Z,7.4
2019-04-04T09:37:02.175Z,7.4
2019-04-04T09:38:03.579Z,7.4
2019-04-04T09:39:04.989Z,7.5
2019-04-04T09:40:06.392Z,7.5
2019-04-04T09:41:07.977Z,7.6
2019-04-04T09:42:09.533Z,7.7
2019-04-04T09:43:10.923Z,7.7
2019-04-04T09:44:12.357Z,7.8
2019-04-04T09:45:13.907Z,7.8
2019-04-04T09:46:15.481Z,7.9
2019-04-04T09:47:16.857Z,7.9
2019-04-04T09:48:18.254Z,7.9
2019-04-04T09:49:19.805Z,7.9
2019-04-04T09:50:21.181Z,7.9
2019-04-04T09:51:22.797Z,7.9
2019-04-04T09:52:24.174Z,7.9
2019-04-04T09:53:25.767Z,7.9
2019-04-04T09:54:27.311Z,7.9
2019-04-04T09:55:28.898Z,7.9
2019-04-04T09:56:30.309Z,7.8
2019-04-04T09:57:31.841Z,7.7
2019-04-04T09:58:33.383Z,7.6
2019-04-04T09:59:35.022Z,7.4
2019-04-04T10:00:36.419Z,7.3
2019-04-04T10:01:37.855Z,7.2
2019-04-04T10:02:39.453Z,7.1
2019-04-04T10:03:40.706Z,7.2
2019-04-04T10:04:42.531Z,7.1
2019-04-04T10:05:43.922Z,7.1
2019-04-04T10:06:45.483Z,7.1
2019-04-04T10:07:46.754Z,7.1
2019-04-04T10:08:48.308Z,7.1
2019-04-04T10:09:49.882Z,7.1
2019-04-04T10:10:51.445Z,7.1
2019-04-04T10:11:52.839Z,7.1
2019-04-04T10:12:54.389Z,7.1
2019-04-04T10:13:55.813Z,7.1
2019-04-04T10:14:57.420Z,7.1
2019-04-04T10:15:58.982Z,7.1
2019-04-04T10:17:00.510Z,7.1
2019-04-04T10:18:02.103Z,7.1
2019-04-04T10:19:03.661Z,7.1
2019-04-04T10:20:05.201Z,7.2
2019-04-04T10:21:13.857Z,7.2
2019-04-04T10:22:15.441Z,7.1
2019-04-04T10:23:16.999Z,7.2
2019-04-04T10:24:18.231Z,7.2
2019-04-04T10:25:19.774Z,7.2
2019-04-04T10:26:21.725Z,7.2
2019-04-04T10:27:23.260Z,7.2
2019-04-04T10:28:24.980Z,7.2
2019-04-04T10:29:26.370Z,7.2
2019-04-04T10:30:27.929Z,7.2
2019-04-04T10:31:29.307Z,7.2
2019-04-04T10:32:30.691Z,7.3
2019-04-04T10:33:31.922Z,7.3
2019-04-04T10:34:33.516Z,7.4
2019-04-04T10:35:35.067Z,7.5
2019-04-04T10:36:36.313Z,7.5
2019-04-04T10:37:37.709Z,7.6
2019-04-04T10:38:39.358Z,7.7
2019-04-04T10:39:40.912Z,7.7
2019-04-04T10:40:42.457Z,7.8
2019-04-04T10:41:44.031Z,7.8
2019-04-04T10:42:45.413Z,7.9
2019-04-04T10:43:46.797Z,7.9
2019-04-04T10:44:48.341Z,7.9
2019-04-04T10:45:49.920Z,7.9
2019-04-04T10:46:51.473Z,7.7
2019-04-04T10:47:53.098Z,7.9
2019-04-04T10:48:54.639Z,7.9
2019-04-04T10:49:59.177Z,7.9
2019-04-04T10:51:00.559Z,7.9
2019-04-04T10:52:01.978Z,7.9
2019-04-04T10:53:03.433Z,7.7
2019-04-04T10:54:04.918Z,7.8
2019-04-04T10:55:06.325Z,7.9
2019-04-04T10:56:07.848Z,7.9
2019-04-04T10:57:09.404Z,7.9
2019-04-04T10:58:10.962Z,7.9
2019-04-04T10:59:12.535Z,7.5
2019-04-04T11:00:14.080Z,7.7
2019-04-04T11:01:15.637Z,7.9
2019-04-04T11:02:17.034Z,7.9
2019-04-04T11:03:18.112Z,7.9
2019-04-04T11:04:19.703Z,7.9
2019-04-04T11:05:21.275Z,7.9
2019-04-04T11:06:22.673Z,7.9
2019-04-04T11:07:24.230Z,7.9
2019-04-04T11:08:25.611Z,7.9
2019-04-04T11:09:27.154Z,7.9
2019-04-04T11:10:28.542Z,7.9
2019-04-04T11:11:29.939Z,7.9
2019-04-04T11:12:34.620Z,7.9
2019-04-04T11:13:36.159Z,7.9
2019-04-04T11:14:37.423Z,7.9
2019-04-04T11:15:39.082Z,7.9
2019-04-04T11:16:40.633Z,7.9
2019-04-04T11:17:42.196Z,7.9
2019-04-04T11:18:43.596Z,7.9
2019-04-04T11:19:45.149Z,7.9
2019-04-04T11:20:46.692Z,7.9
2019-04-04T11:21:48.251Z,7.9
2019-04-04T11:22:49.821Z,7.8
2019-04-04T11:23:51.224Z,7.9
2019-04-04T11:24:52.461Z,7.9
2019-04-04T11:25:54.038Z,7.9
2019-04-04T11:26:55.579Z,7.9
2019-04-04T11:27:57.119Z,7.8
2019-04-04T11:28:58.510Z,7.8
2019-04-04T11:29:59.759Z,7.7
2019-04-04T11:31:01.298Z,7.6
2019-04-04T11:32:02.854Z,7.5
2019-04-04T11:33:04.409Z,7.3
2019-04-04T11:34:05.958Z,7.2
2019-04-04T11:35:07.169Z,7.1
2019-04-04T11:36:08.556Z,7.1
2019-04-04T11:37:10.092Z,7.1
2019-04-04T11:38:11.886Z,7.1
2019-04-04T11:39:13.436Z,7.1
2019-04-04T11:40:14.887Z,7.1
2019-04-04T11:41:16.449Z,7.1
2019-04-04T11:42:17.687Z,7.1
2019-04-04T11:43:19.249Z,7.1
2019-04-04T11:44:20.988Z,7.1
2019-04-04T11:45:22.436Z,7.1
2019-04-04T11:46:23.985Z,7.1
2019-04-04T11:47:25.525Z,7.1
2019-04-04T11:48:27.061Z,7.1
2019-04-04T11:49:29.125Z,7.1
2019-04-04T11:50:30.676Z,7.1
2019-04-04T11:51:32.220Z,7.1
2019-04-04T11:52:33.833Z,7.2
2019-04-04T11:53:35.405Z,7.2
2019-04-04T11:54:36.968Z,7.2
2019-04-04T11:55:38.525Z,7.2
2019-04-04T11:56:39.927Z,7.2
2019-04-04T11:57:41.456Z,7.2
2019-04-04T11:58:43.087Z,7.2
2019-04-04T11:59:44.305Z,7.2
2019-04-04T12:00:45.857Z,7.2
2019-04-04T12:01:47.266Z,7.2
2019-04-04T12:02:48.837Z,7.2
2019-04-04T12:03:50.409Z,7.2
2019-04-04T12:04:52.002Z,7.2
2019-04-04T12:05:53.380Z,7.2
2019-04-04T12:06:54.621Z,7.2
2019-04-04T12:07:56.209Z,7.2
2019-04-04T12:08:57.759Z,7.3
2019-04-04T12:10:09.531Z,7.4
2019-04-04T12:11:11.075Z,7.5
2019-04-04T12:12:12.638Z,7.5
2019-04-04T12:13:13.901Z,7.6
2019-04-04T12:14:15.444Z,7.7
2019-04-04T12:15:16.826Z,7.8
2019-04-04T12:16:18.209Z,7.8
2019-04-04T12:17:19.799Z,7.9
2019-04-04T12:18:21.191Z,7.9
2019-04-04T12:19:22.746Z,7.9
2019-04-04T12:20:24.304Z,7.9
2019-04-04T12:21:25.869Z,7.9
2019-04-04T12:22:27.428Z,7.8
2019-04-04T12:23:29.020Z,7.8
2019-04-04T12:24:30.615Z,7.8
2019-04-04T12:25:32.033Z,7.9
2019-04-04T12:26:33.458Z,7.9
2019-04-04T12:27:35.105Z,7.9
2019-04-04T12:28:36.663Z,7.9
2019-04-04T12:29:38.051Z,7.9
2019-04-04T12:30:39.490Z,7.9
2019-04-04T12:31:40.911Z,7.9
2019-04-04T12:32:42.482Z,7.9
2019-04-04T12:33:43.871Z,7.7
2019-04-04T12:34:45.257Z,7.8
2019-04-04T12:35:46.845Z,7.9
2019-04-04T12:36:48.438Z,7.9
2019-04-04T12:37:49.821Z,7.9
2019-04-04T12:38:51.098Z,7.9
2019-04-04T12:39:52.337Z,7.3
2019-04-04T12:40:53.875Z,7.4
2019-04-04T12:41:55.458Z,7.6
2019-04-04T12:42:57.021Z,7.7
2019-04-04T12:43:58.583Z,7.8
2019-04-04T12:44:59.968Z,7.9
2019-04-04T12:46:01.513Z,7.9
2019-04-04T12:47:03.065Z,7.9
2019-04-04T12:48:04.601Z,7.9
2019-04-04T12:49:06.154Z,7.9
2019-04-04T12:50:07.770Z,7.9
2019-04-04T12:51:09.304Z,7.9
2019-04-04T12:52:10.870Z,7.9
2019-04-04T12:53:12.113Z,7.9
2019-04-04T12:54:13.541Z,7.9
2019-04-04T12:55:14.955Z,7.9
2019-04-04T12:56:16.555Z,7.9
2019-04-04T12:57:18.126Z,7.9
2019-04-04T12:58:19.547Z,7.9
2019-04-04T12:59:21.119Z,7.8
2019-04-04T13:00:22.532Z,7.8
2019-04-04T13:01:24.164Z,7.8
2019-04-04T13:02:25.740Z,7.8
2019-04-04T13:03:27.327Z,7.9
2019-04-04T13:04:33.362Z,7.9
2019-04-04T13:05:34.798Z,7.9
2019-04-04T13:06:36.381Z,7.9
2019-04-04T13:07:38.007Z,7.9
2019-04-04T13:08:39.595Z,7.9
2019-04-04T13:09:40.845Z,7.9
2019-04-04T13:10:42.258Z,7.9
2019-04-04T13:11:43.862Z,7.9
2019-04-04T13:12:45.447Z,7.9
2019-04-04T13:13:47.034Z,7.9
2019-04-04T13:14:48.438Z,7.9
2019-04-04T13:15:50.022Z,7.9
2019-04-04T13:16:51.429Z,7.9
2019-04-04T13:17:52.682Z,7.9
2019-04-04T13:18:54.223Z,7.8
2019-04-04T13:19:55.682Z,7.9
2019-04-04T13:20:57.229Z,7.9
2019-04-04T13:21:58.779Z,7.8
2019-04-04T13:23:00.353Z,7.9
2019-04-04T13:24:01.893Z,7.9
2019-04-04T13:25:03.282Z,7.9
2019-04-04T13:26:04.846Z,7.9
2019-04-04T13:27:06.085Z,7.9
2019-04-04T13:28:07.492Z,7.9
2019-04-04T13:29:08.734Z,7.9
2019-04-04T13:30:10.271Z,7.9
2019-04-04T13:31:11.664Z,7.9
2019-04-04T13:32:13.066Z,7.6
2019-04-04T13:33:14.630Z,7.6
2019-04-04T13:34:16.166Z,7.7
2019-04-04T13:35:17.719Z,7.7
2019-04-04T13:36:19.028Z,7.8
2019-04-04T13:37:20.586Z,7.8
2019-04-04T13:38:22.017Z,7.8
2019-04-04T13:39:23.435Z,7.9
2019-04-04T13:40:25.028Z,7.9
2019-04-04T13:41:26.822Z,7.9
2019-04-04T13:42:28.250Z,7.9
2019-04-04T13:43:29.638Z,7.9
2019-04-04T13:44:31.034Z,7.9
2019-04-04T13:45:32.718Z,7.9
2019-04-04T13:46:34.119Z,7.9
2019-04-04T13:47:41.245Z,7.9
2019-04-04T13:48:45.370Z,7.9
2019-04-04T13:50:01.467Z,7.9
2019-04-04T13:51:02.746Z,7.9
2019-04-04T13:52:04.660Z,7.9
2019-04-04T13:53:06.083Z,7.9
2019-04-04T13:54:07.518Z,7.9
2019-04-04T13:55:09.153Z,7.9
2019-04-04T13:56:10.371Z,7.9
2019-04-04T13:57:11.818Z,7.9
2019-04-04T13:58:13.907Z,7.9
2019-04-04T13:59:15.464Z,7.9
2019-04-04T14:00:17.021Z,7.8
2019-04-04T14:01:18.591Z,7.8
2019-04-04T14:02:20.159Z,7.9
2019-04-04T14:03:21.744Z,7.9
2019-04-04T14:04:26.497Z,7.9
2019-04-04T14:05:28.069Z,7.9
2019-04-04T14:06:29.454Z,7.9
2019-04-04T14:07:30.854Z,7.9
2019-04-04T14:08:32.434Z,7.9
2019-04-04T14:09:33.854Z,7.9
2019-04-04T14:10:35.263Z,7.9
2019-04-04T14:11:40.705Z,7.9
2019-04-04T14:12:42.552Z,7.9
2019-04-04T14:13:44.134Z,7.9
2019-04-04T14:14:45.573Z,7.9
2019-04-04T14:15:47.157Z,7.9
2019-04-04T14:16:48.849Z,7.9
2019-04-04T14:17:50.412Z,7.9
2019-04-04T14:18:51.998Z,7.9
2019-04-04T14:19:53.214Z,7.9
2019-04-04T14:21:05.389Z,7.9
2019-04-04T14:22:07.101Z,7.9
2019-04-04T14:23:08.715Z,7.9
2019-04-04T14:24:15.692Z,7.9